createdAt,value
2023-03-21T00:00:06.356Z,209.11
2023-03-21T00:04:06.647Z,209.80
2023-03-21T00:08:06.724Z,207.65
2023-03-21T00:12:06.823Z,211.04
2023-03-21T00:16:17.428Z,209.71
2023-03-21T00:20:07.900Z,209.07
2023-03-21T00:24:06.880Z,209.29
2023-03-21T00:28:08.585Z,209.41
2023-03-21T00:32:06.951Z,209.38
2023-03-21T00:36:07.141Z,207.27
2023-03-21T00:40:10.722Z,209.53
2023-03-21T00:44:08.207Z,210.75
2023-03-21T00:48:07.432Z,210.24
2023-03-21T00:52:38.164Z,208.77
2023-03-21T00:56:08.143Z,209.81
2023-03-21T01:00:07.146Z,210.45
2023-03-21T01:04:07.391Z,210.23
2023-03-21T01:08:20.698Z,210.42
2023-03-21T01:12:08.542Z,211.24
2023-03-21T01:16:07.478Z,208.67
2023-03-21T01:20:07.636Z,209.19
2023-03-21T01:24:07.903Z,210.66
2023-03-21T01:28:07.961Z,209.53
2023-03-21T01:32:08.176Z,210.73
2023-03-21T01:36:13.001Z,208.70
2023-03-21T01:40:09.346Z,210.16
2023-03-21T01:44:08.437Z,209.35
2023-03-21T01:48:08.550Z,209.87
2023-03-21T01:52:14.025Z,209.41
2023-03-21T01:56:09.817Z,210.18
2023-03-21T02:00:08.619Z,209.22
2023-03-21T02:04:08.825Z,209.53
2023-03-21T02:08:08.978Z,209.73
2023-03-21T02:12:09.214Z,208.94
2023-03-21T02:16:09.432Z,211.16
2023-03-21T02:20:09.609Z,210.05
2023-03-21T02:24:09.919Z,209.51
2023-03-21T02:28:10.038Z,208.99
2023-03-21T02:32:20.366Z,209.90
2023-03-21T02:36:14.225Z,210.06
2023-03-21T02:40:10.028Z,209.15
2023-03-21T02:44:09.871Z,208.69
2023-03-21T02:48:12.166Z,209.37
2023-03-21T02:52:18.598Z,210.79
2023-03-21T02:56:10.922Z,210.27
2023-03-21T03:00:16.087Z,210.01
2023-03-21T03:04:10.836Z,210.84
2023-03-21T03:08:09.764Z,211.34
2023-03-21T03:12:09.710Z,209.52
2023-03-21T03:16:09.709Z,208.68
2023-03-21T03:20:16.234Z,210.86
2023-03-21T03:24:10.606Z,210.06
2023-03-21T03:28:09.581Z,208.83
2023-03-21T03:32:09.646Z,208.09
2023-03-21T03:36:14.807Z,209.38
2023-03-21T03:40:10.512Z,210.75
2023-03-21T03:44:09.460Z,211.04
2023-03-21T03:48:09.458Z,210.79
2023-03-21T03:52:09.410Z,209.14
2023-03-21T03:56:09.409Z,208.59
2023-03-21T04:00:09.313Z,209.23
2023-03-21T04:04:13.207Z,206.87
2023-03-21T04:08:09.274Z,209.05
2023-03-21T04:12:09.242Z,210.11
2023-03-21T04:16:09.200Z,210.98
2023-03-21T04:20:13.916Z,210.27
2023-03-21T04:24:10.251Z,210.48
2023-03-21T04:28:09.190Z,208.45
2023-03-21T04:32:09.277Z,207.41
2023-03-21T04:36:09.198Z,209.54
2023-03-21T04:40:09.154Z,210.49
2023-03-21T04:44:09.060Z,206.77
2023-03-21T04:48:09.127Z,206.61
2023-03-21T04:52:09.013Z,208.75
2023-03-21T04:56:09.023Z,208.89
2023-03-21T05:00:08.904Z,207.70
2023-03-21T05:04:08.923Z,206.02
2023-03-21T05:08:08.927Z,198.51
2023-03-21T05:12:08.871Z,190.58
2023-03-21T05:16:08.861Z,180.48
2023-03-21T05:20:08.807Z,171.54
2023-03-21T05:24:08.718Z,167.47
2023-03-21T05:28:08.726Z,157.78
2023-03-21T05:32:08.724Z,154.88
2023-03-21T05:36:08.674Z,150.18
2023-03-21T05:40:08.913Z,149.94
2023-03-21T05:44:08.504Z,152.19
2023-03-21T05:48:08.592Z,152.52
2023-03-21T05:52:08.508Z,152.54
2023-03-21T05:56:08.496Z,153.43
2023-03-21T06:00:08.502Z,156.62
2023-03-21T06:04:08.442Z,157.99
2023-03-21T06:08:08.538Z,159.90
2023-03-21T06:12:08.472Z,155.58
2023-03-21T06:16:08.284Z,157.34
2023-03-21T06:20:08.234Z,157.60
2023-03-21T06:24:08.171Z,160.93
2023-03-21T06:28:08.231Z,158.43
2023-03-21T06:32:08.124Z,158.50
2023-03-21T06:36:09.042Z,158.08
2023-03-21T06:40:08.141Z,166.20
2023-03-21T06:44:08.661Z,179.15
2023-03-21T06:48:09.464Z,189.47
2023-03-21T06:52:08.598Z,191.73
2023-03-21T06:56:08.415Z,187.42
2023-03-21T07:00:08.403Z,178.08
2023-03-21T07:04:08.285Z,167.48
2023-03-21T07:08:08.285Z,161.01
2023-03-21T07:12:08.203Z,155.78
2023-03-21T07:16:08.236Z,152.88
2023-03-21T07:20:08.166Z,152.26
2023-03-21T07:24:08.086Z,158.18
2023-03-21T07:28:08.066Z,157.28
2023-03-21T07:32:08.018Z,159.47
2023-03-21T07:36:08.042Z,159.46
2023-03-21T07:40:07.969Z,160.22
2023-03-21T07:44:07.898Z,159.25
2023-03-21T07:48:07.938Z,157.61
2023-03-21T07:52:07.928Z,155.39
2023-03-21T07:56:07.795Z,153.93
2023-03-21T08:00:07.788Z,150.79
2023-03-21T08:04:07.753Z,152.21
2023-03-21T08:08:07.737Z,148.48
2023-03-21T08:12:07.672Z,149.41
2023-03-21T08:16:07.744Z,147.23
2023-03-21T08:20:07.719Z,149.39
2023-03-21T08:24:07.849Z,148.87
2023-03-21T08:28:07.871Z,149.92
2023-03-21T08:32:08.501Z,152.53
2023-03-21T08:36:08.423Z,153.24
2023-03-21T08:40:08.236Z,187.29
2023-03-21T08:44:08.184Z,188.96
2023-03-21T08:48:09.460Z,198.58
2023-03-21T08:52:08.110Z,208.26
2023-03-21T08:56:08.061Z,202.52
2023-03-21T09:00:08.016Z,210.53
2023-03-21T09:04:08.161Z,215.81
2023-03-21T09:08:08.007Z,219.13
2023-03-21T09:12:08.088Z,216.54
2023-03-21T09:16:08.056Z,222.10
2023-03-21T09:20:08.124Z,223.02
2023-03-21T09:24:08.163Z,224.49
2023-03-21T09:28:08.286Z,169.17
2023-03-21T09:32:08.462Z,112.78
2023-03-21T09:36:08.621Z,82.77
2023-03-21T09:40:08.680Z,44.94
2023-03-21T09:44:08.751Z,39.46
2023-03-21T09:48:08.890Z,60.36
2023-03-21T09:52:09.008Z,71.27
2023-03-21T09:56:09.134Z,84.23
2023-03-21T10:00:09.156Z,95.47
2023-03-21T10:04:09.323Z,99.80
2023-03-21T10:08:09.281Z,106.64
2023-03-21T10:12:09.272Z,116.45
2023-03-21T10:16:09.684Z,123.96
2023-03-21T10:20:11.567Z,124.48
2023-03-21T10:24:09.234Z,124.45
2023-03-21T10:28:09.110Z,127.91
2023-03-21T10:32:09.379Z,139.45
2023-03-21T10:36:09.073Z,147.07
2023-03-21T10:40:08.987Z,169.21
2023-03-21T10:44:09.730Z,173.41
2023-03-21T10:48:09.024Z,171.44
2023-03-21T10:52:09.717Z,171.65
2023-03-21T10:56:09.209Z,171.69
2023-03-21T11:00:08.808Z,169.55
2023-03-21T11:04:08.760Z,134.22
2023-03-21T11:08:08.708Z,108.95
2023-03-21T11:12:08.680Z,89.61
2023-03-21T11:16:08.698Z,92.66
2023-03-21T11:20:08.636Z,104.26
2023-03-21T11:24:08.676Z,131.75
2023-03-21T11:28:08.531Z,136.11
2023-03-21T11:32:08.531Z,135.49
2023-03-21T11:36:08.498Z,136.83
2023-03-21T11:40:08.472Z,135.52
2023-03-21T11:44:08.431Z,157.93
2023-03-21T11:48:08.487Z,154.35
2023-03-21T11:52:08.692Z,151.54
2023-03-21T11:56:08.829Z,133.09
2023-03-21T12:00:08.958Z,128.38
2023-03-21T12:04:08.954Z,123.32
2023-03-21T12:08:08.881Z,119.87
2023-03-21T12:12:09.145Z,141.93
2023-03-21T12:16:08.914Z,161.78
2023-03-21T12:20:08.791Z,160.86
2023-03-21T12:24:08.719Z,142.96
2023-03-21T12:28:08.735Z,136.14
2023-03-21T12:32:08.773Z,129.48
2023-03-21T12:36:09.234Z,116.41
2023-03-21T12:40:08.683Z,117.10
2023-03-21T12:44:08.666Z,127.11
2023-03-21T12:48:08.890Z,107.86
2023-03-21T12:52:08.688Z,90.58
2023-03-21T12:56:08.715Z,94.76
2023-03-21T13:00:08.669Z,112.74
2023-03-21T13:04:08.768Z,131.67
2023-03-21T13:08:08.655Z,139.67
2023-03-21T13:12:08.623Z,148.80
2023-03-21T13:16:08.600Z,153.77
2023-03-21T13:20:08.640Z,157.95
2023-03-21T13:24:08.560Z,160.91
2023-03-21T13:28:08.625Z,167.20
2023-03-21T13:32:08.661Z,177.34
2023-03-21T13:36:08.803Z,180.65
2023-03-21T13:40:08.647Z,186.86
2023-03-21T13:44:08.665Z,187.77
2023-03-21T13:48:08.736Z,188.68
2023-03-21T13:52:08.761Z,192.09
2023-03-21T13:56:08.677Z,195.43
2023-03-21T14:00:08.705Z,199.49
2023-03-21T14:04:08.718Z,199.33
2023-03-21T14:08:15.706Z,203.91
2023-03-21T14:12:09.845Z,203.00
2023-03-21T14:16:08.798Z,198.68
2023-03-21T14:20:10.773Z,200.87
2023-03-21T14:24:08.779Z,205.12
2023-03-21T14:28:08.770Z,204.01
2023-03-21T14:32:08.663Z,197.09
2023-03-21T14:36:08.684Z,203.49
2023-03-21T14:40:08.662Z,202.06
2023-03-21T14:44:08.552Z,206.80
2023-03-21T14:48:08.586Z,204.89
2023-03-21T14:52:08.465Z,205.63
2023-03-21T14:56:08.509Z,205.05
2023-03-21T15:00:08.435Z,206.00
2023-03-21T15:04:08.364Z,209.41
2023-03-21T15:08:08.344Z,210.19
2023-03-21T15:12:08.344Z,208.95
2023-03-21T15:16:08.666Z,209.20
2023-03-21T15:23:28.297Z,25.00
2023-03-21T15:27:28.343Z,28.79
2023-03-21T15:31:28.268Z,28.54
2023-03-21T15:35:28.188Z,28.58
2023-03-21T15:39:28.163Z,28.82
2023-03-21T15:43:28.181Z,29.71
2023-03-21T15:47:28.090Z,30.31
2023-03-21T15:51:28.507Z,30.65
2023-03-21T15:55:28.052Z,30.99
2023-03-21T15:59:28.128Z,33.47
2023-03-21T16:03:28.066Z,32.08
2023-03-21T16:07:27.957Z,30.85
2023-03-21T16:11:27.884Z,33.55
2023-03-21T16:15:27.913Z,32.81
2023-03-21T16:19:27.857Z,33.83
2023-03-21T16:23:27.844Z,32.34
2023-03-21T16:27:27.762Z,31.44
2023-03-21T16:31:27.882Z,34.75
2023-03-21T16:35:27.769Z,31.89
2023-03-21T16:39:27.661Z,32.67
2023-03-21T16:43:28.085Z,30.62
2023-03-21T16:47:27.629Z,31.64
2023-03-21T16:51:27.582Z,30.91
2023-03-21T16:55:27.497Z,30.78
2023-03-21T16:59:27.486Z,30.70
2023-03-21T17:03:27.489Z,31.17
2023-03-21T17:07:27.403Z,30.47
2023-03-21T17:11:27.465Z,34.42
2023-03-21T17:15:27.336Z,29.57
2023-03-21T17:19:27.316Z,34.98
2023-03-21T17:23:27.253Z,29.69
2023-03-21T17:27:27.261Z,33.34
2023-03-21T17:31:27.252Z,30.46
2023-03-21T17:35:27.191Z,30.51
2023-03-21T17:39:27.167Z,31.24
2023-03-21T17:43:27.081Z,33.41
2023-03-21T17:47:27.041Z,28.99
2023-03-21T17:51:27.119Z,30.02
2023-03-21T17:55:27.053Z,31.28
2023-03-21T17:59:26.963Z,32.80
2023-03-21T18:03:26.984Z,35.12
2023-03-21T18:08:01.919Z,36.28
2023-03-21T18:11:28.017Z,35.55
2023-03-21T18:15:30.220Z,34.53
2023-03-21T18:19:26.980Z,34.98
2023-03-21T18:23:26.967Z,34.70
2023-03-21T18:27:26.916Z,36.41
2023-03-21T18:31:27.337Z,34.07
2023-03-21T18:35:26.835Z,36.08
2023-03-21T18:39:26.793Z,33.17
2023-03-21T18:44:01.477Z,33.74
2023-03-21T18:47:28.166Z,32.10
2023-03-21T18:51:26.701Z,33.39
2023-03-21T18:55:44.494Z,39.25
2023-03-21T18:59:27.599Z,40.93
2023-03-21T19:03:35.713Z,29.30
2023-03-21T19:07:27.526Z,19.88
2023-03-21T19:11:26.462Z,26.00
2023-03-21T19:15:26.481Z,27.35
2023-03-21T19:19:26.435Z,25.00
2023-03-21T19:23:39.895Z,25.25
2023-03-21T19:27:27.520Z,22.19
2023-03-21T19:31:26.509Z,32.30
2023-03-21T19:35:27.137Z,34.90
2023-03-21T19:39:26.659Z,43.37
2023-03-21T19:43:32.813Z,44.78
2023-03-21T19:47:27.841Z,47.39
2023-03-21T19:51:29.766Z,52.73
2023-03-21T19:55:27.616Z,50.88
2023-03-21T19:59:26.686Z,51.73
2023-03-21T20:03:26.667Z,56.34
2023-03-21T20:07:26.668Z,55.63
2023-03-21T20:11:26.627Z,57.08
2023-03-21T20:15:29.750Z,59.11
2023-03-21T20:19:26.494Z,59.54
2023-03-21T20:23:26.483Z,60.41
2023-03-21T20:27:26.642Z,61.41
2023-03-21T20:31:26.422Z,61.89
2023-03-21T20:36:05.406Z,61.49
2023-03-21T20:39:29.860Z,62.50
2023-03-21T20:44:14.361Z,61.93
2023-03-21T20:47:27.261Z,64.40
2023-03-21T20:52:35.937Z,64.55
2023-03-21T20:55:27.202Z,66.43
2023-03-21T20:59:28.123Z,63.90
2023-03-21T21:03:26.115Z,65.23
2023-03-21T21:07:26.098Z,65.94
2023-03-21T21:15:27.005Z,66.69
2023-03-21T21:19:26.143Z,65.66
2023-03-21T21:23:25.918Z,65.66
2023-03-21T21:27:26.075Z,65.34
2023-03-21T21:31:26.232Z,67.97
2023-03-21T21:35:26.372Z,66.23
2023-03-21T21:39:26.553Z,64.31
2023-03-21T21:43:26.571Z,68.47
2023-03-21T21:47:26.712Z,69.36
2023-03-21T21:51:26.821Z,69.65
2023-03-21T21:55:26.978Z,67.44
2023-03-21T21:59:27.106Z,68.69
2023-03-21T22:03:27.746Z,67.54
2023-03-21T22:07:27.506Z,68.67
2023-03-21T22:11:27.616Z,67.65
2023-03-21T22:15:28.140Z,68.62
2023-03-21T22:19:27.935Z,69.63
2023-03-21T22:23:28.100Z,67.49
2023-03-21T22:27:28.303Z,67.04
2023-03-21T22:31:28.509Z,66.85
2023-03-21T22:35:28.722Z,65.87
2023-03-21T22:39:28.891Z,68.78
2023-03-21T22:43:29.064Z,64.37
2023-03-21T22:47:29.258Z,68.03
2023-03-21T22:51:29.417Z,68.02
2023-03-21T22:55:29.633Z,67.12
2023-03-21T22:59:29.843Z,64.51
2023-03-21T23:03:30.013Z,70.99
2023-03-21T23:07:30.252Z,71.26
2023-03-21T23:11:30.453Z,72.57
2023-03-21T23:15:30.426Z,68.66
2023-03-21T23:19:30.407Z,68.50
2023-03-21T23:23:30.323Z,71.85
2023-03-21T23:27:30.293Z,69.48
2023-03-21T23:31:30.301Z,69.01
2023-03-21T23:35:30.242Z,69.79
2023-03-21T23:39:30.221Z,70.60
2023-03-21T23:43:30.133Z,67.78
2023-03-21T23:47:30.133Z,71.96
2023-03-21T23:51:30.092Z,73.08
2023-03-21T23:55:30.247Z,72.87
2023-03-21T23:59:30.691Z,69.38
